createdAt,value
2018-06-10T00:01:07.389Z,21.96
2018-06-10T00:02:43.915Z,22.02
2018-06-10T00:04:20.331Z,21.97
2018-06-10T00:05:56.440Z,21.85
2018-06-10T00:07:32.599Z,21.80
2018-06-10T00:09:08.992Z,21.84
2018-06-10T00:10:45.744Z,21.76
2018-06-10T00:12:21.970Z,21.77
2018-06-10T00:13:58.148Z,21.86
2018-06-10T00:15:34.619Z,21.63
2018-06-10T00:17:11.831Z,21.51
2018-06-10T00:18:48.082Z,21.52
2018-06-10T00:20:24.319Z,21.62
2018-06-10T00:22:00.331Z,21.61
2018-06-10T00:23:36.412Z,21.66
2018-06-10T00:25:12.681Z,21.67
2018-06-10T00:26:48.819Z,21.72
2018-06-10T00:28:30.047Z,21.76
2018-06-10T00:30:07.320Z,21.83
2018-06-10T00:31:43.727Z,21.77
2018-06-10T00:33:19.889Z,21.68
2018-06-10T00:34:56.013Z,21.65
2018-06-10T00:36:32.084Z,21.74
2018-06-10T00:38:08.140Z,21.74
2018-06-10T00:39:44.195Z,21.80
2018-06-10T00:41:20.727Z,21.86
2018-06-10T00:42:57.060Z,21.89
2018-06-10T00:44:33.168Z,21.84
2018-06-10T00:46:09.599Z,21.76
2018-06-10T00:47:45.405Z,21.70
2018-06-10T00:49:21.322Z,21.73
2018-06-10T00:50:58.492Z,21.67
2018-06-10T00:52:34.595Z,21.74
2018-06-10T00:54:11.163Z,21.73
2018-06-10T00:55:47.584Z,21.73
2018-06-10T00:57:28.145Z,21.64
2018-06-10T00:59:04.149Z,21.62
2018-06-10T01:00:40.305Z,21.57
2018-06-10T01:02:16.410Z,21.61
2018-06-10T01:03:52.496Z,21.65
2018-06-10T01:05:28.554Z,21.62
2018-06-10T01:07:04.624Z,21.55
2018-06-10T01:08:41.325Z,21.61
2018-06-10T01:10:17.342Z,21.60
2018-06-10T01:11:53.150Z,21.62
2018-06-10T01:13:29.267Z,21.57
2018-06-10T01:15:05.741Z,21.59
2018-06-10T01:16:41.813Z,21.61
2018-06-10T01:18:17.940Z,21.52
2018-06-10T01:19:53.986Z,21.42
2018-06-10T01:21:31.002Z,21.41
2018-06-10T01:23:07.138Z,21.32
2018-06-10T01:24:43.473Z,21.23
2018-06-10T01:26:24.727Z,21.18
2018-06-10T01:28:00.850Z,21.09
2018-06-10T01:29:36.953Z,21.06
2018-06-10T01:31:13.131Z,21.09
2018-06-10T01:32:49.378Z,21.13
2018-06-10T01:34:25.490Z,21.09
2018-06-10T01:36:01.549Z,21.06
2018-06-10T01:37:37.754Z,21.13
2018-06-10T01:39:17.653Z,21.14
2018-06-10T01:40:55.321Z,20.99
2018-06-10T01:42:33.305Z,20.84
2018-06-10T01:44:10.239Z,20.81
2018-06-10T01:45:47.165Z,20.87
2018-06-10T01:47:23.434Z,20.88
2018-06-10T01:49:00.488Z,20.83
2018-06-10T01:50:36.797Z,20.83
2018-06-10T01:52:13.446Z,20.84
2018-06-10T01:53:49.787Z,20.85
2018-06-10T01:55:25.915Z,20.83
2018-06-10T01:57:02.236Z,20.83
2018-06-10T01:58:38.610Z,20.86
2018-06-10T02:00:15.146Z,20.77
2018-06-10T02:01:51.279Z,20.73
2018-06-10T02:03:27.378Z,20.72
2018-06-10T02:05:03.454Z,20.66
2018-06-10T02:06:39.786Z,20.66
2018-06-10T02:08:16.994Z,20.62
2018-06-10T02:09:53.919Z,20.61
2018-06-10T02:11:30.037Z,20.65
2018-06-10T02:13:07.057Z,20.62
2018-06-10T02:14:43.189Z,20.64
2018-06-10T02:16:19.537Z,20.63
2018-06-10T02:17:56.099Z,20.59
2018-06-10T02:19:33.280Z,20.60
2018-06-10T02:21:09.983Z,20.57
2018-06-10T02:22:46.226Z,20.57
2018-06-10T02:24:22.307Z,20.59
2018-06-10T02:25:58.409Z,20.48
2018-06-10T02:27:36.219Z,20.47
2018-06-10T02:29:12.333Z,20.40
2018-06-10T02:30:48.393Z,20.37
2018-06-10T02:32:25.702Z,20.41
2018-06-10T02:34:03.696Z,20.42
2018-06-10T02:35:39.714Z,20.31
2018-06-10T02:37:15.777Z,20.29
2018-06-10T02:38:51.796Z,20.34
2018-06-10T02:40:27.823Z,20.35
2018-06-10T02:42:03.902Z,20.32
2018-06-10T02:43:39.932Z,20.23
2018-06-10T02:45:15.937Z,20.27
2018-06-10T02:46:51.930Z,20.27
2018-06-10T02:48:27.982Z,20.35
2018-06-10T02:50:04.040Z,20.37
2018-06-10T02:51:40.377Z,20.42
2018-06-10T02:53:17.042Z,20.46
2018-06-10T02:54:53.605Z,20.51
2018-06-10T02:56:29.628Z,20.55
2018-06-10T02:58:05.724Z,20.42
2018-06-10T02:59:41.752Z,20.40
2018-06-10T03:01:17.980Z,20.43
2018-06-10T03:02:54.102Z,20.48
2018-06-10T03:04:31.391Z,20.56
2018-06-10T03:06:08.494Z,20.58
2018-06-10T03:07:44.567Z,20.57
2018-06-10T03:09:20.685Z,20.64
2018-06-10T03:10:56.783Z,20.64
2018-06-10T03:12:32.826Z,20.60
2018-06-10T03:14:08.883Z,20.60
2018-06-10T03:15:45.014Z,20.68
2018-06-10T03:17:21.412Z,20.69
2018-06-10T03:18:58.161Z,20.73
2018-06-10T03:20:40.953Z,20.72
2018-06-10T03:22:17.926Z,20.72
2018-06-10T03:23:54.056Z,20.73
2018-06-10T03:25:30.155Z,20.76
2018-06-10T03:27:06.643Z,20.85
2018-06-10T03:28:43.515Z,20.88
2018-06-10T03:30:21.434Z,20.83
2018-06-10T03:31:57.609Z,20.87
2018-06-10T03:33:35.844Z,20.77
2018-06-10T03:35:12.409Z,20.76
2018-06-10T03:36:49.379Z,20.75
2018-06-10T03:38:32.715Z,20.81
2018-06-10T03:40:08.802Z,20.81
2018-06-10T03:41:44.738Z,20.93
2018-06-10T03:43:20.974Z,20.96
2018-06-10T03:44:57.701Z,20.94
2018-06-10T03:46:34.028Z,20.92
2018-06-10T03:48:10.076Z,20.91
2018-06-10T03:49:46.209Z,20.85
2018-06-10T03:51:22.285Z,20.83
2018-06-10T03:52:58.387Z,20.95
2018-06-10T03:54:34.413Z,20.99
2018-06-10T03:56:10.514Z,21.08
2018-06-10T03:57:46.565Z,21.04
2018-06-10T03:59:22.590Z,20.97
2018-06-10T04:00:58.680Z,21.05
2018-06-10T04:02:34.924Z,21.10
2018-06-10T04:04:10.960Z,21.17
2018-06-10T04:05:47.022Z,21.21
2018-06-10T04:07:23.497Z,21.22
2018-06-10T04:08:59.532Z,21.22
2018-06-10T04:10:36.378Z,21.18
2018-06-10T04:12:13.894Z,21.25
2018-06-10T04:13:50.195Z,21.28
2018-06-10T04:15:26.276Z,21.34
2018-06-10T04:17:02.310Z,21.43
2018-06-10T04:18:38.405Z,21.47
2018-06-10T04:20:14.453Z,21.56
2018-06-10T04:21:50.506Z,21.69
2018-06-10T04:23:26.714Z,21.69
2018-06-10T04:25:02.772Z,21.73
2018-06-10T04:26:39.021Z,21.72
2018-06-10T04:28:15.038Z,21.57
2018-06-10T04:29:51.144Z,21.52
2018-06-10T04:31:27.268Z,21.52
2018-06-10T04:33:03.765Z,21.47
2018-06-10T04:34:39.865Z,21.49
2018-06-10T04:36:15.961Z,21.62
2018-06-10T04:37:52.066Z,21.59
2018-06-10T04:39:28.453Z,21.64
2018-06-10T04:41:04.643Z,21.68
2018-06-10T04:42:40.678Z,21.74
2018-06-10T04:44:16.472Z,21.76
2018-06-10T04:45:52.677Z,21.69
2018-06-10T04:47:29.618Z,21.66
2018-06-10T04:49:06.125Z,21.65
2018-06-10T04:50:42.207Z,21.65
2018-06-10T04:52:18.262Z,21.57
2018-06-10T04:53:54.388Z,21.61
2018-06-10T04:55:31.318Z,21.68
2018-06-10T04:57:07.390Z,21.68
2018-06-10T04:58:43.389Z,21.81
2018-06-10T05:00:20.631Z,21.71
2018-06-10T05:01:59.621Z,21.70
2018-06-10T05:03:37.983Z,21.81
2018-06-10T05:05:15.006Z,21.94
2018-06-10T05:06:53.034Z,21.97
2018-06-10T05:08:34.172Z,21.90
2018-06-10T05:10:11.377Z,21.93
2018-06-10T05:11:47.422Z,22.06
2018-06-10T05:13:23.799Z,22.24
2018-06-10T05:14:59.890Z,22.27
2018-06-10T05:16:36.391Z,22.32
2018-06-10T05:18:13.222Z,22.15
2018-06-10T05:19:49.153Z,22.42
2018-06-10T05:21:25.798Z,22.45
2018-06-10T05:23:01.952Z,22.54
2018-06-10T05:24:38.451Z,22.54
2018-06-10T05:26:14.532Z,22.60
2018-06-10T05:27:51.037Z,22.67
2018-06-10T05:29:27.195Z,22.91
2018-06-10T05:31:09.458Z,23.02
2018-06-10T05:32:45.629Z,23.12
2018-06-10T05:34:23.031Z,23.09
2018-06-10T05:36:00.242Z,23.07
2018-06-10T05:37:38.122Z,23.17
2018-06-10T05:39:15.143Z,23.27
2018-06-10T05:40:51.194Z,23.35
2018-06-10T05:42:27.247Z,23.43
2018-06-10T05:44:03.378Z,23.61
2018-06-10T05:45:39.498Z,23.83
2018-06-10T05:47:16.672Z,23.84
2018-06-10T05:48:52.724Z,24.00
2018-06-10T05:50:30.115Z,24.12
2018-06-10T05:52:08.028Z,24.09
2018-06-10T05:53:47.560Z,24.26
2018-06-10T05:55:23.743Z,24.45
2018-06-10T05:57:00.122Z,24.63
2018-06-10T05:58:37.745Z,24.87
2018-06-10T06:00:13.953Z,24.90
2018-06-10T06:01:50.695Z,24.83
2018-06-10T06:03:26.772Z,24.77
2018-06-10T06:05:03.110Z,24.75
2018-06-10T06:06:41.446Z,24.81
2018-06-10T06:08:27.134Z,25.03
2018-06-10T06:10:03.743Z,25.25
2018-06-10T06:11:41.585Z,25.47
2018-06-10T06:13:20.776Z,25.46
2018-06-10T06:14:58.397Z,25.58
2018-06-10T06:18:21.498Z,25.48
2018-06-10T06:19:59.780Z,25.47
2018-06-10T06:21:38.145Z,25.55
2018-06-10T06:23:25.699Z,25.47
2018-06-10T06:25:05.456Z,25.48
2018-06-10T06:26:46.106Z,25.72
2018-06-10T06:28:22.718Z,25.83
2018-06-10T06:30:00.061Z,25.92
2018-06-10T06:31:39.657Z,25.92
2018-06-10T06:33:16.609Z,25.96
2018-06-10T06:34:52.677Z,26.14
2018-06-10T06:36:28.765Z,26.18
2018-06-10T06:38:05.298Z,25.94
2018-06-10T06:39:41.832Z,26.15
2018-06-10T06:41:18.716Z,26.13
2018-06-10T06:42:56.110Z,26.26
2018-06-10T06:44:32.262Z,26.37
2018-06-10T06:46:13.490Z,26.52
2018-06-10T06:47:51.341Z,26.68
2018-06-10T06:49:27.410Z,27.00
2018-06-10T06:51:03.533Z,27.08
2018-06-10T06:52:40.521Z,27.14
2018-06-10T06:54:17.861Z,26.89
2018-06-10T06:55:55.131Z,26.43
2018-06-10T06:57:31.846Z,26.32
2018-06-10T06:59:08.844Z,26.55
2018-06-10T07:00:45.612Z,26.57
2018-06-10T07:02:24.446Z,26.57
2018-06-10T07:04:01.042Z,26.30
2018-06-10T07:05:37.727Z,26.33
2018-06-10T07:07:14.868Z,26.21
2018-06-10T07:09:00.737Z,26.38
2018-06-10T07:10:37.581Z,26.44
2018-06-10T07:12:15.401Z,26.52
2018-06-10T07:13:51.508Z,26.72
2018-06-10T07:15:28.146Z,26.89
2018-06-10T07:17:05.693Z,26.67
2018-06-10T07:18:45.875Z,26.71
2018-06-10T07:20:23.551Z,26.89
2018-06-10T07:22:00.218Z,27.05
2018-06-10T07:23:38.876Z,27.18
2018-06-10T07:25:19.023Z,26.68
2018-06-10T07:26:58.319Z,26.97
2018-06-10T07:28:35.105Z,26.98
2018-06-10T07:30:11.150Z,26.90
2018-06-10T07:31:49.984Z,26.85
2018-06-10T07:33:26.322Z,26.95
2018-06-10T07:35:10.655Z,27.03
2018-06-10T07:36:46.735Z,26.92
2018-06-10T07:38:22.519Z,26.89
2018-06-10T07:39:58.398Z,26.82
2018-06-10T07:41:34.906Z,27.08
2018-06-10T07:43:10.940Z,26.76
2018-06-10T07:44:47.312Z,26.79
2018-06-10T07:46:23.499Z,26.74
2018-06-10T07:47:59.954Z,26.81
2018-06-10T07:49:36.084Z,26.63
2018-06-10T07:51:12.097Z,26.60
2018-06-10T07:52:49.586Z,26.75
2018-06-10T07:54:25.474Z,26.68
2018-06-10T07:56:02.905Z,26.54
2018-06-10T07:57:39.226Z,26.50
2018-06-10T07:59:15.348Z,26.22
2018-06-10T08:00:51.857Z,26.40
2018-06-10T08:02:27.989Z,26.41
2018-06-10T08:04:05.416Z,26.47
2018-06-10T08:05:41.482Z,26.43
2018-06-10T08:07:17.720Z,26.40
2018-06-10T08:08:55.367Z,26.52
2018-06-10T08:10:31.858Z,26.34
2018-06-10T08:12:08.117Z,26.44
2018-06-10T08:13:46.316Z,26.65
2018-06-10T08:15:22.626Z,26.56
2018-06-10T08:17:00.013Z,26.41
2018-06-10T08:18:38.017Z,26.36
2018-06-10T08:20:14.654Z,26.52
2018-06-10T08:21:50.780Z,26.65
2018-06-10T08:23:28.073Z,26.74
2018-06-10T08:25:05.277Z,26.71
2018-06-10T08:26:43.668Z,26.66
2018-06-10T08:28:21.067Z,26.54
2018-06-10T08:30:01.851Z,26.53
2018-06-10T08:31:38.816Z,26.56
2018-06-10T08:33:16.386Z,26.40
2018-06-10T08:34:58.117Z,26.38
2018-06-10T08:36:42.927Z,26.59
2018-06-10T08:38:21.038Z,26.72
2018-06-10T08:39:59.630Z,26.84
2018-06-10T08:41:36.246Z,27.11
2018-06-10T08:43:16.605Z,27.24
2018-06-10T08:45:01.246Z,27.26
2018-06-10T08:46:43.992Z,27.28
2018-06-10T08:48:28.057Z,27.37
2018-06-10T08:50:04.331Z,27.54
2018-06-10T08:51:40.664Z,27.39
2018-06-10T08:53:16.711Z,27.61
2018-06-10T08:54:52.813Z,27.61
2018-06-10T08:56:29.024Z,27.91
2018-06-10T08:58:05.188Z,27.90
2018-06-10T08:59:43.177Z,27.91
2018-06-10T09:01:24.061Z,27.99
2018-06-10T09:03:09.670Z,28.07
2018-06-10T09:04:49.515Z,28.08
2018-06-10T09:06:25.899Z,27.82
2018-06-10T09:08:04.394Z,27.74
2018-06-10T09:09:41.695Z,27.50
2018-06-10T09:11:21.335Z,27.71
2018-06-10T09:12:59.561Z,28.04
2018-06-10T09:14:37.056Z,27.99
2018-06-10T09:16:19.898Z,28.00
2018-06-10T09:17:59.022Z,28.25
2018-06-10T09:19:36.658Z,28.22
2018-06-10T09:21:34.292Z,28.08
2018-06-10T09:23:16.054Z,27.96
2018-06-10T09:24:56.664Z,28.27
2018-06-10T09:26:33.410Z,28.21
2018-06-10T09:28:10.884Z,28.51
2018-06-10T09:29:50.499Z,28.72
2018-06-10T09:31:27.455Z,29.06
2018-06-10T09:33:03.502Z,28.83
2018-06-10T09:34:39.567Z,28.86
2018-06-10T09:36:16.809Z,29.12
2018-06-10T09:37:52.874Z,29.37
2018-06-10T09:39:28.917Z,29.36
2018-06-10T09:41:08.538Z,28.38
2018-06-10T09:42:47.089Z,28.48
2018-06-10T09:44:23.230Z,28.80
2018-06-10T09:45:59.895Z,29.07
2018-06-10T09:47:37.377Z,28.93
2018-06-10T09:49:13.471Z,28.99
2018-06-10T09:50:49.898Z,29.03
2018-06-10T09:52:25.995Z,28.61
2018-06-10T09:54:02.028Z,28.70
2018-06-10T09:55:38.602Z,28.61
2018-06-10T09:57:14.587Z,29.13
2018-06-10T09:58:51.439Z,28.98
2018-06-10T10:00:28.474Z,28.86
2018-06-10T10:02:12.992Z,28.69
2018-06-10T10:03:49.532Z,28.71
2018-06-10T10:05:26.566Z,28.72
2018-06-10T10:07:02.612Z,28.63
2018-06-10T10:08:38.681Z,28.08
2018-06-10T10:10:14.704Z,27.92
2018-06-10T10:11:50.939Z,27.76
2018-06-10T10:13:27.264Z,27.65
2018-06-10T10:15:03.396Z,28.05
2018-06-10T10:16:39.439Z,28.22
2018-06-10T10:18:15.457Z,28.11
2018-06-10T10:19:51.766Z,28.26
2018-06-10T10:21:29.550Z,28.42
2018-06-10T10:23:08.323Z,28.29
2018-06-10T10:24:45.317Z,28.07
2018-06-10T10:29:58.771Z,28.29
2018-06-10T10:31:35.527Z,28.31
2018-06-10T10:33:11.683Z,28.32
2018-06-10T10:35:00.509Z,27.99
2018-06-10T10:36:37.494Z,27.55
2018-06-10T10:38:13.670Z,27.17
2018-06-10T10:39:50.238Z,27.62
2018-06-10T10:41:29.148Z,28.06
2018-06-10T10:43:05.212Z,28.09
2018-06-10T10:44:41.355Z,28.33
2018-06-10T10:46:18.603Z,28.83
2018-06-10T10:47:54.927Z,28.91
2018-06-10T10:49:31.714Z,29.14
2018-06-10T10:51:07.875Z,28.92
2018-06-10T10:52:44.194Z,29.33
2018-06-10T10:54:20.369Z,29.15
2018-06-10T10:55:56.535Z,28.62
2018-06-10T10:57:33.391Z,28.64
2018-06-10T10:59:11.359Z,28.37
2018-06-10T11:00:47.693Z,28.66
2018-06-10T11:02:28.591Z,28.71
2018-06-10T11:04:05.887Z,28.83
2018-06-10T11:05:44.472Z,28.91
2018-06-10T11:07:23.532Z,29.24
2018-06-10T11:09:02.129Z,29.36
2018-06-10T11:10:40.960Z,29.25
2018-06-10T11:12:20.058Z,29.56
2018-06-10T11:13:57.856Z,29.18
2018-06-10T11:15:36.169Z,28.70
2018-06-10T11:17:14.265Z,28.66
2018-06-10T11:18:56.854Z,28.97
2018-06-10T11:20:34.822Z,29.18
2018-06-10T11:22:12.843Z,29.15
2018-06-10T11:23:49.816Z,28.75
2018-06-10T11:25:27.637Z,28.55
2018-06-10T11:27:04.383Z,28.34
2018-06-10T11:28:43.672Z,28.34
2018-06-10T11:30:22.255Z,28.27
2018-06-10T11:31:59.298Z,28.41
2018-06-10T11:33:37.382Z,28.13
2018-06-10T11:35:15.877Z,28.49
2018-06-10T11:36:52.334Z,28.78
2018-06-10T11:38:30.435Z,28.55
2018-06-10T11:40:09.480Z,28.23
2018-06-10T11:41:48.057Z,28.47
2018-06-10T11:43:25.879Z,28.82
2018-06-10T11:45:02.961Z,28.76
2018-06-10T11:46:41.058Z,28.37
2018-06-10T11:48:19.346Z,28.64
2018-06-10T11:49:58.941Z,28.27
2018-06-10T11:51:40.896Z,28.20
2018-06-10T11:53:17.631Z,27.83
2018-06-10T11:54:54.886Z,27.64
2018-06-10T11:56:31.265Z,27.81
2018-06-10T11:58:07.459Z,27.69
2018-06-10T11:59:47.026Z,27.71
2018-06-10T12:01:24.199Z,27.58
2018-06-10T12:03:01.519Z,27.75
2018-06-10T12:04:40.097Z,27.70
2018-06-10T12:06:16.390Z,27.97
2018-06-10T12:07:52.473Z,27.91
2018-06-10T12:09:28.778Z,28.08
2018-06-10T12:11:04.905Z,28.34
2018-06-10T12:12:41.442Z,28.30
2018-06-10T12:14:17.921Z,27.71
2018-06-10T12:15:56.312Z,27.78
2018-06-10T12:17:32.483Z,27.77
2018-06-10T12:19:08.580Z,27.70
2018-06-10T12:20:44.692Z,27.48
2018-06-10T12:22:24.405Z,27.22
2018-06-10T12:24:00.444Z,27.04
2018-06-10T12:25:38.327Z,27.27
2018-06-10T12:27:15.334Z,27.37
2018-06-10T12:28:52.287Z,27.50
2018-06-10T12:30:28.677Z,27.41
2018-06-10T12:32:04.882Z,27.42
2018-06-10T12:33:41.765Z,27.33
2018-06-10T12:35:18.746Z,27.28
2018-06-10T12:36:54.865Z,27.45
2018-06-10T12:38:31.081Z,27.46
2018-06-10T12:40:08.085Z,27.50
2018-06-10T12:41:44.840Z,27.67
2018-06-10T12:43:21.054Z,27.79
2018-06-10T12:44:57.136Z,27.88
2018-06-10T12:46:33.205Z,28.00
2018-06-10T12:48:09.515Z,27.72
2018-06-10T12:49:49.227Z,27.64
2018-06-10T12:51:26.560Z,27.61
2018-06-10T12:53:03.286Z,27.73
2018-06-10T12:54:42.566Z,27.89
2018-06-10T12:56:25.444Z,27.89
2018-06-10T12:58:03.755Z,27.74
2018-06-10T12:59:40.967Z,27.75
2018-06-10T13:01:18.044Z,27.68
2018-06-10T13:02:54.430Z,27.61
2018-06-10T13:04:38.596Z,27.40
2018-06-10T13:06:14.720Z,27.58
2018-06-10T13:07:51.282Z,27.81
2018-06-10T13:09:29.863Z,27.95
2018-06-10T13:11:07.039Z,28.17
2018-06-10T13:12:43.469Z,27.97
2018-06-10T13:14:21.915Z,27.99
2018-06-10T13:15:58.672Z,27.84
2018-06-10T13:17:37.809Z,27.81
2018-06-10T13:19:17.047Z,27.88
2018-06-10T13:20:58.698Z,27.85
2018-06-10T13:22:35.595Z,27.96
2018-06-10T13:24:15.036Z,28.22
2018-06-10T13:25:54.501Z,28.45
2018-06-10T13:27:31.294Z,28.57
2018-06-10T13:29:09.154Z,28.52
2018-06-10T13:30:46.625Z,28.57
2018-06-10T13:32:23.743Z,28.48
2018-06-10T13:34:00.802Z,28.54
2018-06-10T13:35:38.870Z,28.85
2018-06-10T13:37:16.682Z,28.82
2018-06-10T13:38:52.852Z,28.79
2018-06-10T13:40:30.287Z,28.69
2018-06-10T13:42:07.462Z,28.77
2018-06-10T13:43:43.247Z,28.93
2018-06-10T13:45:21.053Z,29.17
2018-06-10T13:47:02.484Z,29.43
2018-06-10T13:48:39.157Z,29.57
2018-06-10T13:50:16.650Z,29.82
2018-06-10T13:51:52.976Z,29.91
2018-06-10T13:53:29.553Z,29.46
2018-06-10T13:55:07.695Z,29.73
2018-06-10T13:56:46.836Z,30.18
2018-06-10T13:58:23.238Z,29.75
2018-06-10T14:00:01.119Z,29.85
2018-06-10T14:01:40.157Z,29.78
2018-06-10T14:03:17.747Z,29.74
2018-06-10T14:04:55.568Z,29.64
2018-06-10T14:06:33.623Z,29.57
2018-06-10T14:08:10.199Z,29.68
2018-06-10T14:09:46.311Z,29.61
2018-06-10T14:11:23.521Z,29.92
2018-06-10T14:13:02.812Z,29.65
2018-06-10T14:14:38.986Z,29.90
2018-06-10T14:16:15.161Z,29.65
2018-06-10T14:17:51.758Z,29.74
2018-06-10T14:19:28.163Z,29.45
2018-06-10T14:21:04.969Z,29.56
2018-06-10T14:22:42.242Z,29.52
2018-06-10T14:24:19.097Z,29.26
2018-06-10T14:25:55.916Z,29.49
2018-06-10T14:27:32.545Z,29.53
2018-06-10T14:29:08.837Z,29.17
2018-06-10T14:30:45.279Z,29.04
2018-06-10T14:32:23.435Z,28.82
2018-06-10T14:34:00.884Z,28.92
2018-06-10T14:35:38.256Z,29.28
2018-06-10T14:37:15.095Z,29.68
2018-06-10T14:38:52.090Z,29.65
2018-06-10T14:40:28.351Z,29.52
2018-06-10T14:42:05.012Z,29.58
2018-06-10T14:43:41.649Z,29.43
2018-06-10T14:45:31.548Z,29.31
2018-06-10T14:47:08.412Z,28.95
2018-06-10T14:48:44.510Z,29.00
2018-06-10T14:50:20.574Z,29.17
2018-06-10T14:51:56.614Z,29.34
2018-06-10T14:53:32.963Z,29.46
2018-06-10T14:55:08.993Z,29.09
2018-06-10T14:56:45.053Z,29.16
2018-06-10T14:58:22.368Z,29.19
2018-06-10T14:59:58.851Z,28.92
2018-06-10T15:01:34.978Z,29.17
2018-06-10T15:03:11.036Z,29.14
2018-06-10T15:04:47.374Z,29.34
2018-06-10T15:06:24.243Z,29.69
2018-06-10T15:08:01.485Z,29.88
2018-06-10T15:09:37.678Z,30.03
2018-06-10T15:11:13.764Z,30.02
2018-06-10T15:12:49.829Z,29.96
2018-06-10T15:14:26.405Z,29.84
2018-06-10T15:16:02.480Z,29.76
2018-06-10T15:17:38.527Z,29.73
2018-06-10T15:19:14.624Z,29.78
2018-06-10T15:20:50.743Z,29.56
2018-06-10T15:22:26.740Z,29.26
2018-06-10T15:24:04.141Z,29.28
2018-06-10T15:25:40.355Z,29.20
2018-06-10T15:27:16.627Z,29.29
2018-06-10T15:28:53.009Z,29.40
2018-06-10T15:30:30.610Z,29.48
2018-06-10T15:32:06.794Z,29.43
2018-06-10T15:33:48.155Z,29.10
2018-06-10T15:35:27.578Z,29.09
2018-06-10T15:37:05.510Z,29.35
2018-06-10T15:38:41.681Z,29.44
2018-06-10T15:40:18.575Z,29.79
2018-06-10T15:41:54.923Z,30.12
2018-06-10T15:43:31.727Z,30.41
2018-06-10T15:45:09.365Z,30.30
2018-06-10T15:46:45.913Z,30.34
2018-06-10T15:48:23.485Z,30.18
2018-06-10T15:50:01.718Z,30.40
2018-06-10T15:51:38.217Z,30.67
2018-06-10T15:53:14.559Z,30.73
2018-06-10T15:54:55.824Z,30.64
2018-06-10T15:56:35.430Z,30.00
2018-06-10T15:58:12.004Z,29.73
2018-06-10T15:59:49.926Z,29.71
2018-06-10T16:01:26.420Z,29.77
2018-06-10T16:03:02.539Z,29.79
2018-06-10T16:04:38.931Z,29.89
2018-06-10T16:06:15.367Z,29.88
2018-06-10T16:07:52.311Z,29.62
2018-06-10T16:09:30.914Z,29.66
2018-06-10T16:11:08.048Z,29.56
2018-06-10T16:12:44.861Z,29.31
2018-06-10T16:14:21.229Z,29.89
2018-06-10T16:15:57.654Z,30.19
2018-06-10T16:17:36.051Z,29.91
2018-06-10T16:19:13.571Z,30.00
2018-06-10T16:20:51.381Z,29.80
2018-06-10T16:22:28.041Z,29.88
2018-06-10T16:24:04.779Z,29.95
2018-06-10T16:25:41.878Z,29.61
2018-06-10T16:27:18.207Z,29.33
2018-06-10T16:28:55.918Z,29.32
2018-06-10T16:30:33.611Z,29.25
2018-06-10T16:32:12.156Z,28.84
2018-06-10T16:33:59.879Z,28.66
2018-06-10T16:35:36.338Z,28.00
2018-06-10T16:37:13.190Z,27.79
2018-06-10T16:38:49.348Z,27.69
2018-06-10T16:40:25.816Z,27.63
2018-06-10T16:42:04.381Z,27.52
2018-06-10T16:43:44.083Z,27.70
2018-06-10T16:45:22.168Z,27.73
2018-06-10T16:47:15.411Z,27.66
2018-06-10T16:48:51.580Z,27.66
2018-06-10T16:50:27.985Z,27.70
2018-06-10T16:52:04.216Z,27.98
2018-06-10T16:53:40.799Z,28.07
2018-06-10T16:55:27.188Z,28.16
2018-06-10T16:57:06.874Z,27.68
2018-06-10T16:58:45.884Z,27.60
2018-06-10T17:00:23.492Z,27.54
2018-06-10T17:01:59.678Z,27.45
2018-06-10T17:03:36.052Z,27.37
2018-06-10T17:05:20.822Z,27.16
2018-06-10T17:06:58.237Z,27.09
2018-06-10T17:08:36.615Z,26.99
2018-06-10T17:10:12.963Z,27.07
2018-06-10T17:11:49.407Z,26.75
2018-06-10T17:13:27.199Z,26.73
2018-06-10T17:15:03.658Z,26.70
2018-06-10T17:16:40.637Z,26.88
2018-06-10T17:18:17.154Z,26.80
2018-06-10T17:19:53.794Z,26.74
2018-06-10T17:21:31.019Z,26.73
2018-06-10T17:23:06.765Z,26.69
2018-06-10T17:24:43.402Z,26.42
2018-06-10T17:26:20.251Z,26.34
2018-06-10T17:27:56.354Z,26.52
2018-06-10T17:29:32.642Z,26.37
2018-06-10T17:31:08.726Z,26.36
2018-06-10T17:32:44.864Z,26.37
2018-06-10T17:34:21.428Z,26.27
2018-06-10T17:35:58.109Z,26.16
2018-06-10T17:37:34.570Z,26.20
2018-06-10T17:39:10.637Z,26.11
2018-06-10T17:40:46.875Z,26.11
2018-06-10T17:42:23.375Z,26.12
2018-06-10T17:44:04.551Z,26.24
2018-06-10T17:45:41.191Z,26.29
2018-06-10T17:47:17.721Z,26.23
2018-06-10T17:48:54.153Z,25.97
2018-06-10T17:50:30.283Z,25.89
2018-06-10T17:52:07.162Z,25.94
2018-06-10T17:53:43.899Z,25.97
2018-06-10T17:55:20.137Z,26.08
2018-06-10T17:56:56.425Z,26.07
2018-06-10T17:58:32.467Z,25.94
2018-06-10T18:00:13.321Z,25.87
2018-06-10T18:01:49.371Z,25.48
2018-06-10T18:03:25.663Z,25.68
2018-06-10T18:05:01.691Z,25.71
2018-06-10T18:06:37.758Z,25.70
2018-06-10T18:08:13.781Z,25.79
2018-06-10T18:09:50.556Z,25.85
2018-06-10T18:11:27.642Z,26.02
2018-06-10T18:13:08.216Z,26.28
2018-06-10T18:14:44.483Z,26.50
2018-06-10T18:16:20.663Z,26.55
2018-06-10T18:17:57.203Z,26.74
2018-06-10T18:19:33.470Z,26.81
2018-06-10T18:21:09.534Z,26.63
2018-06-10T18:22:45.611Z,26.50
2018-06-10T18:24:21.888Z,26.42
2018-06-10T18:25:58.006Z,26.38
2018-06-10T18:27:36.458Z,26.21
2018-06-10T18:29:13.817Z,26.14
2018-06-10T18:30:49.834Z,26.05
2018-06-10T18:32:28.426Z,25.93
2018-06-10T18:34:04.518Z,25.71
2018-06-10T18:35:40.529Z,25.66
2018-06-10T18:37:16.659Z,25.68
2018-06-10T18:38:52.679Z,25.70
2018-06-10T18:40:28.746Z,25.59
2018-06-10T18:42:05.000Z,25.52
2018-06-10T18:43:41.032Z,25.50
2018-06-10T18:45:16.789Z,25.50
2018-06-10T18:46:53.542Z,25.42
2018-06-10T18:48:29.634Z,25.24
2018-06-10T18:50:09.681Z,25.22
2018-06-10T18:53:41.428Z,25.11
2018-06-10T18:55:20.870Z,25.09
2018-06-10T18:56:57.168Z,24.98
2018-06-10T18:58:33.487Z,24.98
2018-06-10T19:00:09.757Z,24.89
2018-06-10T19:01:46.042Z,24.98
2018-06-10T19:03:22.949Z,25.04
2018-06-10T19:04:58.941Z,25.10
2018-06-10T19:06:34.964Z,25.13
2018-06-10T19:08:11.013Z,25.17
2018-06-10T19:09:47.069Z,25.12
2018-06-10T19:11:23.134Z,25.24
2018-06-10T19:12:59.216Z,25.16
2018-06-10T19:14:35.279Z,25.01
2018-06-10T19:16:11.594Z,25.13
2018-06-10T19:17:47.634Z,25.06
2018-06-10T19:19:23.647Z,25.00
2018-06-10T19:20:59.701Z,24.83
2018-06-10T19:22:35.723Z,25.00
2018-06-10T19:24:11.802Z,24.95
2018-06-10T19:28:07.029Z,24.73
2018-06-10T19:29:42.831Z,24.70
2018-06-10T19:31:18.734Z,24.50
2018-06-10T19:32:54.855Z,24.51
2018-06-10T19:34:30.857Z,24.58
2018-06-10T19:36:07.072Z,24.66
2018-06-10T19:37:43.071Z,24.71
2018-06-10T19:39:20.116Z,24.62
2018-06-10T19:40:55.968Z,24.69
2018-06-10T19:42:32.176Z,24.68
2018-06-10T19:44:08.243Z,24.70
2018-06-10T19:45:44.310Z,24.80
2018-06-10T19:47:20.324Z,24.85
2018-06-10T19:48:56.288Z,24.75
2018-06-10T19:50:32.305Z,24.76
2018-06-10T19:52:08.358Z,24.78
2018-06-10T19:53:44.533Z,24.74
2018-06-10T19:55:20.550Z,24.75
2018-06-10T19:56:56.557Z,24.77
2018-06-10T19:58:32.588Z,24.82
2018-06-10T20:00:08.619Z,24.79
2018-06-10T20:01:44.606Z,24.77
2018-06-10T20:03:25.088Z,24.82
2018-06-10T20:05:01.711Z,24.78
2018-06-10T20:06:37.701Z,24.73
2018-06-10T20:08:13.848Z,24.70
2018-06-10T20:09:50.207Z,24.60
2018-06-10T20:11:25.935Z,24.58
2018-06-10T20:13:01.771Z,24.54
2018-06-10T20:14:38.288Z,24.44
2018-06-10T20:16:14.281Z,24.24
2018-06-10T20:17:50.291Z,24.21
2018-06-10T20:19:26.275Z,24.18
2018-06-10T20:21:02.257Z,24.08
2018-06-10T20:22:38.282Z,24.05
2018-06-10T20:24:14.414Z,23.89
2018-06-10T20:25:50.422Z,23.80
2018-06-10T20:27:26.406Z,23.83
2018-06-10T20:29:02.438Z,23.75
2018-06-10T20:30:38.625Z,23.61
2018-06-10T20:32:14.562Z,23.58
2018-06-10T20:33:50.777Z,23.51
2018-06-10T20:35:26.841Z,23.43
2018-06-10T20:37:05.751Z,23.42
2018-06-10T20:38:42.356Z,23.36
2018-06-10T20:40:18.356Z,23.35
2018-06-10T20:41:54.405Z,23.34
2018-06-10T20:43:30.430Z,23.33
2018-06-10T20:45:06.590Z,23.33
2018-06-10T20:46:42.699Z,23.32
2018-06-10T20:48:18.767Z,23.29
2018-06-10T20:49:54.703Z,23.15
2018-06-10T20:51:30.840Z,23.19
2018-06-10T20:53:07.024Z,23.17
2018-06-10T20:54:43.100Z,23.21
2018-06-10T20:56:19.170Z,23.14
2018-06-10T20:57:55.137Z,23.12
2018-06-10T20:59:31.135Z,23.07
2018-06-10T21:01:07.295Z,23.08